Adams, Oregon
Current Conditions -  °F | °C
As of 10:53 PM on Tuesday 25 Nov 2014 (Local Time) from KPDT Reporting Station
Overcast Overcast  
Wind Chill: 13°   Ceiling: 5500
Heat Index: 13°   Visibility: 10mi
Dew Point:   Wind: 17mph
Humidity: 64%   Direction: 230°SW
Pressure: 30.2"   Gusts: NA
Location:  45.77°N, 118.56°W
Report Text: KPDT 260653Z AUTO 23015KT 10SM OVC055 13/07 A3020 RMK AO2 SLP218 T01330067
Loading
Personal Weather Stations






























Interactive Weather Map New forecast layout! Learn more

10-Day Weather Forecast

Advertisements
Track Severe Weather on mobile